createdAt,value
2023-03-22T00:00:20.328Z,99920.94
2023-03-22T00:01:24.928Z,99914.44
2023-03-22T00:02:26.708Z,99916.97
2023-03-22T00:03:29.456Z,99909.59
2023-03-22T00:04:32.211Z,99905.56
2023-03-22T00:05:34.960Z,99911.72
2023-03-22T00:06:37.630Z,99909.81
2023-03-22T00:07:40.986Z,99913.16
2023-03-22T00:08:44.050Z,99912.13
2023-03-22T00:09:45.691Z,99898.22
2023-03-22T00:10:49.137Z,99906.88
2023-03-22T00:11:52.311Z,99903.09
2023-03-22T00:12:55.098Z,99906.47
2023-03-22T00:13:58.793Z,99896.13
2023-03-22T00:15:01.901Z,99902.47
2023-03-22T00:16:04.010Z,99903.31
2023-03-22T00:17:06.724Z,99896.56
2023-03-22T00:18:12.461Z,99903.09
2023-03-22T00:19:15.822Z,99899.31
2023-03-22T00:20:20.874Z,99901.84
2023-03-22T00:21:23.677Z,99895.91
2023-03-22T00:22:25.643Z,99896.97
2023-03-22T00:23:28.154Z,99893.19
2023-03-22T00:24:30.832Z,99896.13
2023-03-22T00:25:32.526Z,99891.09
2023-03-22T00:26:38.379Z,99891.94
2023-03-22T00:27:41.794Z,99893.59
2023-03-22T00:28:44.506Z,99888.56
2023-03-22T00:29:46.201Z,99890.00
2023-03-22T00:30:53.914Z,99889.81
2023-03-22T00:31:56.026Z,99887.69
2023-03-22T00:32:58.724Z,99885.59
2023-03-22T00:34:00.471Z,99882.41
2023-03-22T00:35:03.647Z,99881.16
2023-03-22T00:36:07.745Z,99885.38
2023-03-22T00:37:10.441Z,99877.78
2023-03-22T00:38:14.534Z,99881.78
2023-03-22T00:39:17.217Z,99885.16
2023-03-22T00:40:19.122Z,99882.19
2023-03-22T00:41:23.248Z,99882.84
2023-03-22T00:42:25.016Z,99882.38
2023-03-22T00:43:29.020Z,99879.25
2023-03-22T00:44:30.763Z,99878.81
2023-03-22T00:45:36.247Z,99883.25
2023-03-22T00:46:38.111Z,99886.59
2023-03-22T00:47:40.894Z,99876.69
2023-03-22T00:48:42.634Z,99881.34
2023-03-22T00:49:45.378Z,99875.00
2023-03-22T00:50:47.057Z,99877.50
2023-03-22T00:51:49.749Z,99878.34
2023-03-22T00:52:51.451Z,99877.75
2023-03-22T00:53:54.794Z,99880.25
2023-03-22T00:54:56.988Z,99870.38
2023-03-22T00:55:59.876Z,99879.66
2023-03-22T00:57:01.606Z,99886.19
2023-03-22T00:58:04.413Z,99878.38
2023-03-22T00:59:07.488Z,99879.25
2023-03-22T01:00:13.661Z,99874.56
2023-03-22T01:01:15.505Z,99874.16
2023-03-22T01:02:18.235Z,99868.47
2023-03-22T01:03:21.880Z,99870.97
2023-03-22T01:04:26.255Z,99873.50
2023-03-22T01:05:28.378Z,99866.53
2023-03-22T01:06:31.066Z,99874.97
2023-03-22T01:07:33.161Z,99872.03
2023-03-22T01:08:38.829Z,99863.59
2023-03-22T01:09:40.807Z,99862.94
2023-03-22T01:10:44.623Z,99867.59
2023-03-22T01:11:46.337Z,99862.94
2023-03-22T01:12:49.088Z,99863.78
2023-03-22T01:13:50.846Z,99874.97
2023-03-22T01:14:54.864Z,99862.53
2023-03-22T01:15:56.619Z,99871.81
2023-03-22T01:16:59.452Z,99860.00
2023-03-22T01:18:01.780Z,99858.53
2023-03-22T01:19:04.556Z,99857.91
2023-03-22T01:20:09.274Z,99856.00
2023-03-22T01:21:12.075Z,99851.56
2023-03-22T01:22:13.827Z,99852.59
2023-03-22T01:23:16.479Z,99849.88
2023-03-22T01:24:18.163Z,99858.94
2023-03-22T01:25:21.029Z,99852.41
2023-03-22T01:26:22.741Z,99857.03
2023-03-22T01:27:25.395Z,99853.47
2023-03-22T01:28:27.494Z,99860.22
2023-03-22T01:29:31.218Z,99851.78
2023-03-22T01:30:34.551Z,99855.59
2023-03-22T01:31:37.286Z,99856.63
2023-03-22T01:32:39.022Z,99854.09
2023-03-22T01:33:41.674Z,99855.59
2023-03-22T01:34:43.320Z,99851.16
2023-03-22T01:35:46.251Z,99854.75
2023-03-22T01:36:48.193Z,99843.75
2023-03-22T01:37:51.099Z,99843.13
2023-03-22T01:38:52.851Z,99851.16
2023-03-22T01:39:55.839Z,99849.69
2023-03-22T01:40:57.699Z,99842.28
2023-03-22T01:42:00.356Z,99837.88
2023-03-22T01:43:02.160Z,99834.28
2023-03-22T01:44:08.843Z,99837.03
2023-03-22T01:45:36.844Z,99836.78
2023-03-22T01:46:39.895Z,99837.03
2023-03-22T01:47:44.114Z,99828.56
2023-03-22T01:48:47.224Z,99827.50
2023-03-22T01:49:49.003Z,99830.03
2023-03-22T01:50:57.452Z,99833.63
2023-03-22T01:52:02.201Z,99822.41
2023-03-22T01:53:05.159Z,99824.13
2023-03-22T01:54:08.172Z,99814.84
2023-03-22T01:55:11.025Z,99822.84
2023-03-22T01:56:13.054Z,99814.63
2023-03-22T01:57:15.795Z,99817.56
2023-03-22T01:58:18.284Z,99823.91
2023-03-22T01:59:21.355Z,99813.13
2023-03-22T02:00:23.143Z,99824.56
2023-03-22T02:01:27.296Z,99817.13
2023-03-22T02:02:30.957Z,99821.56
2023-03-22T02:03:39.478Z,99822.81
2023-03-22T02:04:41.353Z,99820.06
2023-03-22T02:05:44.750Z,99829.16
2023-03-22T02:06:47.153Z,99819.22
2023-03-22T02:07:50.262Z,99821.38
2023-03-22T02:08:53.044Z,99812.91
2023-03-22T02:09:55.729Z,99809.53
2023-03-22T02:10:57.448Z,99813.34
2023-03-22T02:12:09.843Z,99812.91
2023-03-22T02:13:22.807Z,99811.00
2023-03-22T02:14:45.940Z,99799.81
2023-03-22T02:15:52.009Z,99797.91
2023-03-22T02:17:05.138Z,99807.84
2023-03-22T02:18:19.742Z,99803.19
2023-03-22T02:19:51.989Z,99805.69
2023-03-22T02:21:16.321Z,99811.19
2023-03-22T02:22:52.960Z,99818.41
2023-03-22T02:24:28.993Z,99800.25
2023-03-22T02:25:46.206Z,99815.47
2023-03-22T02:27:28.302Z,99813.34
2023-03-22T02:28:39.456Z,99814.63
2023-03-22T02:29:44.943Z,99807.66
2023-03-22T02:31:00.076Z,99810.63
2023-03-22T02:32:38.405Z,99807.66
2023-03-22T02:34:25.857Z,99817.16
2023-03-22T02:35:36.473Z,99815.91
2023-03-22T02:36:57.171Z,99818.88
2023-03-22T02:38:45.797Z,99819.31
2023-03-22T02:39:51.524Z,99814.03
2023-03-22T02:40:58.024Z,99816.97
2023-03-22T02:42:11.297Z,99812.34
2023-03-22T02:43:18.215Z,99821.19
2023-03-22T02:44:26.347Z,99814.88
2023-03-22T02:45:34.814Z,99818.66
2023-03-22T02:46:43.558Z,99810.03
2023-03-22T02:47:54.286Z,99822.50
2023-03-22T02:49:02.004Z,99820.16
2023-03-22T02:50:09.016Z,99813.22
2023-03-22T02:51:13.678Z,99808.78
2023-03-22T02:52:20.243Z,99809.81
2023-03-22T02:53:25.304Z,99808.97
2023-03-22T02:54:30.169Z,99801.78
2023-03-22T02:55:36.094Z,99807.28
2023-03-22T02:56:41.648Z,99806.22
2023-03-22T02:57:47.373Z,99803.50
2023-03-22T02:58:53.262Z,99806.22
2023-03-22T02:59:55.895Z,99806.03
2023-03-22T03:01:01.973Z,99798.00
2023-03-22T03:02:04.828Z,99800.75
2023-03-22T03:03:11.532Z,99802.44
2023-03-22T03:04:16.955Z,99803.28
2023-03-22T03:05:20.756Z,99797.81
2023-03-22T03:06:25.764Z,99789.56
2023-03-22T03:07:28.917Z,99788.72
2023-03-22T03:08:30.937Z,99787.88
2023-03-22T03:09:34.545Z,99789.38
2023-03-22T03:10:38.852Z,99796.31
2023-03-22T03:11:41.716Z,99791.47
2023-03-22T03:12:43.979Z,99793.13
2023-03-22T03:13:48.713Z,99790.38
2023-03-22T03:14:50.725Z,99784.69
2023-03-22T03:15:57.223Z,99792.72
2023-03-22T03:17:11.137Z,99789.97
2023-03-22T03:18:21.484Z,99787.22
2023-03-22T03:19:27.974Z,99788.06
2023-03-22T03:20:37.160Z,99780.47
2023-03-22T03:21:45.238Z,99793.13
2023-03-22T03:22:54.815Z,99783.84
2023-03-22T03:24:03.526Z,99785.75
2023-03-22T03:25:10.935Z,99778.97
2023-03-22T03:26:22.386Z,99783.84
2023-03-22T03:27:28.276Z,99783.84
2023-03-22T03:28:39.266Z,99784.69
2023-03-22T03:29:45.807Z,99781.94
2023-03-22T03:30:52.454Z,99780.25
2023-03-22T03:31:58.036Z,99781.31
2023-03-22T03:33:05.276Z,99785.53
2023-03-22T03:34:13.587Z,99791.22
2023-03-22T03:35:23.269Z,99791.03
2023-03-22T03:36:26.483Z,99792.72
2023-03-22T03:37:34.409Z,99789.13
2023-03-22T03:38:38.574Z,99784.69
2023-03-22T03:39:45.814Z,99788.06
2023-03-22T03:40:49.580Z,99783.84
2023-03-22T03:41:54.587Z,99777.50
2023-03-22T03:42:57.104Z,99784.69
2023-03-22T03:44:00.090Z,99774.78
2023-03-22T03:45:01.958Z,99772.88
2023-03-22T03:46:04.706Z,99779.19
2023-03-22T03:47:07.816Z,99775.00
2023-03-22T03:48:14.902Z,99769.28
2023-03-22T03:49:17.616Z,99766.53
2023-03-22T03:50:20.367Z,99771.19
2023-03-22T03:51:22.063Z,99771.19
2023-03-22T03:52:26.078Z,99765.94
2023-03-22T03:53:28.146Z,99764.88
2023-03-22T03:54:30.900Z,99764.63
2023-03-22T03:55:33.766Z,99757.69
2023-03-22T03:56:36.445Z,99767.63
2023-03-22T03:57:39.482Z,99760.00
2023-03-22T03:58:42.189Z,99762.53
2023-03-22T03:59:45.309Z,99757.91
2023-03-22T04:00:48.608Z,99756.00
2023-03-22T04:01:51.588Z,99761.25
2023-03-22T04:02:54.343Z,99762.09
2023-03-22T04:03:56.059Z,99759.16
2023-03-22T04:04:58.783Z,99757.00
2023-03-22T04:06:01.119Z,99752.59
2023-03-22T04:07:06.213Z,99755.09
2023-03-22T04:08:08.398Z,99752.38
2023-03-22T04:09:11.894Z,99749.63
2023-03-22T04:10:13.629Z,99758.69
2023-03-22T04:11:16.263Z,99754.25
2023-03-22T04:12:17.964Z,99757.84
2023-03-22T04:13:24.562Z,99750.91
2023-03-22T04:14:26.662Z,99750.06
2023-03-22T04:15:29.372Z,99744.59
2023-03-22T04:16:31.515Z,99749.88
2023-03-22T04:17:34.334Z,99752.59
2023-03-22T04:18:36.047Z,99749.00
2023-03-22T04:19:38.710Z,99751.53
2023-03-22T04:20:41.890Z,99747.13
2023-03-22T04:21:44.743Z,99740.78
2023-03-22T04:22:46.913Z,99743.53
2023-03-22T04:23:49.625Z,99743.53
2023-03-22T04:24:51.372Z,99738.03
2023-03-22T04:25:54.589Z,99741.38
2023-03-22T04:26:56.796Z,99740.53
2023-03-22T04:28:00.629Z,99739.50
2023-03-22T04:29:04.306Z,99733.81
2023-03-22T04:30:10.954Z,99734.66
2023-03-22T04:31:12.852Z,99735.69
2023-03-22T04:32:18.757Z,99732.94
2023-03-22T04:33:22.792Z,99730.22
2023-03-22T04:34:26.333Z,99730.84
2023-03-22T04:35:27.995Z,99730.84
2023-03-22T04:36:31.213Z,99725.34
2023-03-22T04:37:33.947Z,99733.34
2023-03-22T04:38:35.947Z,99737.78
2023-03-22T04:39:38.839Z,99731.44
2023-03-22T04:40:46.959Z,99735.03
2023-03-22T04:41:49.666Z,99731.44
2023-03-22T04:42:57.398Z,99734.19
2023-03-22T04:44:02.887Z,99728.72
2023-03-22T04:45:07.607Z,99734.44
2023-03-22T04:46:12.965Z,99734.19
2023-03-22T04:47:14.825Z,99740.75
2023-03-22T04:48:20.489Z,99732.75
2023-03-22T04:49:23.438Z,99734.66
2023-03-22T04:50:28.173Z,99738.66
2023-03-22T04:51:32.137Z,99730.66
2023-03-22T04:52:33.875Z,99728.75
2023-03-22T04:53:38.969Z,99730.66
2023-03-22T04:54:40.814Z,99735.28
2023-03-22T04:55:45.369Z,99733.59
2023-03-22T04:56:47.168Z,99735.09
2023-03-22T04:57:49.883Z,99734.47
2023-03-22T04:58:51.562Z,99732.56
2023-03-22T04:59:54.298Z,99730.88
2023-03-22T05:00:58.425Z,99725.63
2023-03-22T05:02:01.295Z,99734.06
2023-03-22T05:03:04.128Z,99725.81
2023-03-22T05:04:07.242Z,99729.00
2023-03-22T05:05:09.247Z,99734.50
2023-03-22T05:06:12.343Z,99731.75
2023-03-22T05:07:14.356Z,99724.78
2023-03-22T05:08:16.992Z,99728.38
2023-03-22T05:09:19.137Z,99721.84
2023-03-22T05:10:22.610Z,99725.63
2023-03-22T05:11:27.670Z,99729.44
2023-03-22T05:12:30.366Z,99723.09
2023-03-22T05:13:32.113Z,99723.09
2023-03-22T05:14:34.843Z,99727.72
2023-03-22T05:15:39.072Z,99724.19
2023-03-22T05:16:43.248Z,99726.06
2023-03-22T05:17:44.912Z,99730.91
2023-03-22T05:18:47.706Z,99730.91
2023-03-22T05:19:49.457Z,99731.13
2023-03-22T05:20:53.807Z,99726.06
2023-03-22T05:21:58.518Z,99721.44
2023-03-22T05:23:02.830Z,99726.28
2023-03-22T05:24:05.031Z,99734.75
2023-03-22T05:25:09.086Z,99735.59
2023-03-22T05:26:11.296Z,99736.00
2023-03-22T05:27:14.231Z,99740.88
2023-03-22T05:28:16.779Z,99740.88
2023-03-22T05:29:19.428Z,99737.06
2023-03-22T05:30:21.467Z,99737.06
2023-03-22T05:31:24.614Z,99737.91
2023-03-22T05:32:29.332Z,99734.09
2023-03-22T05:33:32.061Z,99739.59
2023-03-22T05:34:37.062Z,99740.63
2023-03-22T05:35:41.521Z,99725.03
2023-03-22T05:36:43.344Z,99730.53
2023-03-22T05:37:46.002Z,99738.53
2023-03-22T05:38:47.753Z,99741.09
2023-03-22T05:39:50.543Z,99737.69
2023-03-22T05:40:52.624Z,99744.88
2023-03-22T05:41:55.369Z,99746.78
2023-03-22T05:42:57.074Z,99744.22
2023-03-22T05:43:59.713Z,99741.28
2023-03-22T05:45:01.426Z,99745.72
2023-03-22T05:46:06.843Z,99740.22
2023-03-22T05:47:08.520Z,99757.34
2023-03-22T05:48:12.719Z,99745.28
2023-03-22T05:49:14.454Z,99755.19
2023-03-22T05:50:19.170Z,99749.50
2023-03-22T05:51:20.843Z,99746.56
2023-03-22T05:52:24.169Z,99750.97
2023-03-22T05:53:25.854Z,99747.19
2023-03-22T05:54:28.516Z,99752.88
2023-03-22T05:55:32.004Z,99752.25
2023-03-22T05:56:35.229Z,99752.25
2023-03-22T05:57:36.993Z,99758.59
2023-03-22T05:58:41.090Z,99764.06
2023-03-22T05:59:43.815Z,99754.78
2023-03-22T06:00:45.740Z,99750.97
2023-03-22T06:01:48.430Z,99761.72
2023-03-22T06:02:52.272Z,99756.03
2023-03-22T06:03:56.345Z,99747.81
2023-03-22T06:04:58.076Z,99757.50
2023-03-22T06:06:00.895Z,99757.91
2023-03-22T06:07:02.691Z,99759.84
2023-03-22T06:08:05.772Z,99763.19
2023-03-22T06:09:16.763Z,99750.75
2023-03-22T06:10:20.538Z,99762.19
2023-03-22T06:11:22.784Z,99759.44
2023-03-22T06:12:27.206Z,99766.81
2023-03-22T06:13:30.532Z,99773.34
2023-03-22T06:14:33.204Z,99765.31
2023-03-22T06:15:34.866Z,99758.19
2023-03-22T06:16:37.688Z,99755.19
2023-03-22T06:17:39.499Z,99760.47
2023-03-22T06:18:42.132Z,99748.47
2023-03-22T06:19:45.508Z,99753.72
2023-03-22T06:20:48.259Z,99745.06
2023-03-22T06:21:51.836Z,99747.38
2023-03-22T06:22:54.477Z,99751.81
2023-03-22T06:23:56.218Z,99741.88
2023-03-22T06:24:58.872Z,99738.94
2023-03-22T06:26:00.561Z,99744.00
2023-03-22T06:27:03.388Z,99747.78
2023-03-22T06:28:08.223Z,99740.78
2023-03-22T06:29:11.420Z,99749.22
2023-03-22T06:30:13.629Z,99749.63
2023-03-22T06:31:16.414Z,99758.28
2023-03-22T06:32:18.167Z,99766.72
2023-03-22T06:33:20.869Z,99764.19
2023-03-22T06:34:22.556Z,99760.38
2023-03-22T06:35:26.622Z,99766.28
2023-03-22T06:36:28.419Z,99767.31
2023-03-22T06:37:31.080Z,99767.72
2023-03-22T06:38:33.250Z,99766.00
2023-03-22T06:39:35.985Z,99773.41
2023-03-22T06:40:37.926Z,99770.19
2023-03-22T06:41:40.957Z,99766.81
2023-03-22T06:42:42.637Z,99772.94
2023-03-22T06:43:45.262Z,99777.56
2023-03-22T06:44:47.042Z,99778.16
2023-03-22T06:45:50.064Z,99779.66
2023-03-22T06:46:51.935Z,99776.06
2023-03-22T06:47:54.763Z,99781.56
2023-03-22T06:48:56.478Z,99771.81
2023-03-22T06:49:59.146Z,99793.97
2023-03-22T06:51:02.381Z,99778.13
2023-03-22T06:52:05.435Z,99785.25
2023-03-22T06:53:07.606Z,99782.31
2023-03-22T06:54:12.572Z,99782.28
2023-03-22T06:55:15.451Z,99781.41
2023-03-22T06:56:17.139Z,99789.81
2023-03-22T06:57:20.043Z,99790.47
2023-03-22T06:58:21.841Z,99785.97
2023-03-22T06:59:24.558Z,99785.53
2023-03-22T07:00:26.323Z,99791.44
2023-03-22T07:01:29.132Z,99793.78
2023-03-22T07:02:31.031Z,99794.19
2023-03-22T07:03:33.706Z,99790.63
2023-03-22T07:04:35.467Z,99785.75
2023-03-22T07:05:38.277Z,99791.25
2023-03-22T07:06:41.310Z,99796.09
2023-03-22T07:07:43.994Z,99789.81
2023-03-22T07:08:45.707Z,99783.09
2023-03-22T07:09:49.138Z,99787.09
2023-03-22T07:10:51.453Z,99790.28
2023-03-22T07:11:54.244Z,99798.72
2023-03-22T07:12:55.997Z,99797.22
2023-03-22T07:13:58.683Z,99793.25
2023-03-22T07:15:00.414Z,99793.44
2023-03-22T07:16:03.502Z,99788.59
2023-03-22T07:17:05.336Z,99791.53
2023-03-22T07:18:08.546Z,99794.09
2023-03-22T07:19:10.445Z,99792.66
2023-03-22T07:20:13.131Z,99794.13
2023-03-22T07:21:15.198Z,99787.16
2023-03-22T07:22:22.179Z,99785.06
2023-03-22T07:23:23.836Z,99786.53
2023-03-22T07:24:26.543Z,99794.94
2023-03-22T07:25:28.227Z,99791.09
2023-03-22T07:26:31.536Z,99785.78
2023-03-22T07:27:33.219Z,99791.69
2023-03-22T07:28:36.131Z,99792.28
2023-03-22T07:29:37.834Z,99790.53
2023-03-22T07:30:41.613Z,99790.47
2023-03-22T07:31:43.528Z,99792.56
2023-03-22T07:32:46.224Z,99796.34
2023-03-22T07:33:49.203Z,99791.28
2023-03-22T07:34:51.063Z,99791.69
2023-03-22T07:35:53.794Z,99784.50
2023-03-22T07:36:57.030Z,99794.22
2023-03-22T07:38:01.256Z,99800.97
2023-03-22T07:39:02.983Z,99793.19
2023-03-22T07:40:06.949Z,99797.00
2023-03-22T07:41:08.779Z,99792.31
2023-03-22T07:42:11.464Z,99793.75
2023-03-22T07:43:13.254Z,99783.59
2023-03-22T07:44:18.239Z,99788.22
2023-03-22T07:45:21.850Z,99778.22
2023-03-22T07:46:23.810Z,99787.72
2023-03-22T07:47:39.895Z,99781.19
2023-03-22T07:48:43.093Z,99775.22
2023-03-22T07:49:44.844Z,99784.13
2023-03-22T07:50:47.900Z,99783.66
2023-03-22T07:51:50.645Z,99781.72
2023-03-22T07:52:52.417Z,99789.75
2023-03-22T07:53:56.477Z,99781.41
2023-03-22T07:54:58.182Z,99782.22
2023-03-22T07:56:00.912Z,99786.19
2023-03-22T07:57:02.671Z,99781.91
2023-03-22T07:58:06.188Z,99786.78
2023-03-22T07:59:09.093Z,99784.03
2023-03-22T08:00:17.322Z,99780.63
2023-03-22T08:01:20.079Z,99781.53
2023-03-22T08:02:21.805Z,99780.69
2023-03-22T08:03:25.372Z,99769.22
2023-03-22T08:04:27.818Z,99779.56
2023-03-22T08:05:30.859Z,99784.38
2023-03-22T08:06:33.794Z,99770.19
2023-03-22T08:07:35.586Z,99773.94
2023-03-22T08:08:38.455Z,99777.81
2023-03-22T08:09:41.504Z,99776.69
2023-03-22T08:10:44.257Z,99776.22
2023-03-22T08:11:46.926Z,99778.50
2023-03-22T08:12:48.583Z,99786.78
2023-03-22T08:13:51.462Z,99780.03
2023-03-22T08:14:53.253Z,99782.75
2023-03-22T08:15:55.985Z,99790.59
2023-03-22T08:16:57.699Z,99782.97
2023-03-22T08:18:00.582Z,99783.44
2023-03-22T08:19:02.824Z,99774.22
2023-03-22T08:20:08.712Z,99778.06
2023-03-22T08:21:11.822Z,99772.78
2023-03-22T08:22:13.584Z,99773.84
2023-03-22T08:23:16.831Z,99778.06
2023-03-22T08:24:19.646Z,99779.31
2023-03-22T08:25:23.548Z,99772.31
2023-03-22T08:26:27.032Z,99775.69
2023-03-22T08:27:28.759Z,99786.50
2023-03-22T08:28:31.536Z,99792.44
2023-03-22T08:29:33.950Z,99774.84
2023-03-22T08:30:37.283Z,99776.44
2023-03-22T08:31:40.061Z,99777.22
2023-03-22T08:32:42.716Z,99784.09
2023-03-22T08:33:45.775Z,99777.53
2023-03-22T08:34:47.598Z,99779.59
2023-03-22T08:35:50.611Z,99769.16
2023-03-22T08:36:52.336Z,99783.78
2023-03-22T08:37:55.702Z,99766.97
2023-03-22T08:38:58.503Z,99777.19
2023-03-22T08:40:00.280Z,99783.84
2023-03-22T08:41:04.504Z,99774.16
2023-03-22T08:42:06.325Z,99767.28
2023-03-22T08:43:09.027Z,99767.44
2023-03-22T08:44:10.755Z,99779.25
2023-03-22T08:45:13.427Z,99771.34
2023-03-22T08:46:15.382Z,99775.94
2023-03-22T08:47:18.105Z,99772.94
2023-03-22T08:48:20.920Z,99769.81
2023-03-22T08:49:23.057Z,99768.75
2023-03-22T08:50:25.770Z,99770.28
2023-03-22T08:51:27.544Z,99765.22
2023-03-22T08:52:31.330Z,99765.38
2023-03-22T08:53:33.028Z,99771.00
2023-03-22T08:54:36.017Z,99761.69
2023-03-22T08:55:39.983Z,99771.25
2023-03-22T08:56:43.292Z,99765.06
2023-03-22T08:57:50.142Z,99765.16
2023-03-22T08:58:51.837Z,99760.50
2023-03-22T08:59:54.536Z,99765.91
2023-03-22T09:00:56.253Z,99771.69
2023-03-22T09:01:59.299Z,99762.34
2023-03-22T09:03:02.065Z,99758.63
2023-03-22T09:04:04.802Z,99753.00
2023-03-22T09:05:08.116Z,99748.69
2023-03-22T09:06:11.116Z,99747.63
2023-03-22T09:07:12.826Z,99755.19
2023-03-22T09:08:19.854Z,99750.75
2023-03-22T09:09:22.754Z,99745.34
2023-03-22T09:10:24.489Z,99748.22
2023-03-22T09:11:27.427Z,99755.94
2023-03-22T09:12:30.691Z,99747.16
2023-03-22T09:13:34.595Z,99738.28
2023-03-22T09:14:36.538Z,99736.09
2023-03-22T09:15:39.553Z,99740.31
2023-03-22T09:16:42.569Z,99743.91
2023-03-22T09:17:44.295Z,99752.19
2023-03-22T09:18:46.972Z,99730.00
2023-03-22T09:19:48.697Z,99736.94
2023-03-22T09:20:51.935Z,99738.13
2023-03-22T09:21:54.635Z,99741.63
2023-03-22T09:22:57.318Z,99742.00
2023-03-22T09:23:59.998Z,99734.56
2023-03-22T09:25:02.734Z,99741.16
2023-03-22T09:26:08.043Z,99741.16
2023-03-22T09:27:09.857Z,99734.44
2023-03-22T09:28:14.419Z,99738.06
2023-03-22T09:29:16.164Z,99723.28
2023-03-22T09:30:18.919Z,99743.69
2023-03-22T09:31:21.947Z,99738.06
2023-03-22T09:32:23.641Z,99743.31
2023-03-22T09:33:26.367Z,99736.84
2023-03-22T09:34:29.154Z,99742.00
2023-03-22T09:35:32.039Z,99743.31
2023-03-22T09:36:34.783Z,99728.81
2023-03-22T09:37:36.476Z,99741.28
2023-03-22T09:38:39.308Z,99733.34
2023-03-22T09:39:41.554Z,99736.38
2023-03-22T09:40:50.162Z,99728.94
2023-03-22T09:41:54.058Z,99737.78
2023-03-22T09:42:58.938Z,99725.56
2023-03-22T09:44:05.148Z,99729.28
2023-03-22T09:45:12.724Z,99732.28
2023-03-22T09:46:17.420Z,99707.69
2023-03-22T09:47:24.459Z,99718.75
2023-03-22T09:48:32.366Z,99726.91
2023-03-22T09:49:47.201Z,99723.53
2023-03-22T09:50:55.862Z,99718.97
2023-03-22T09:51:58.690Z,99723.41
2023-03-22T09:53:01.724Z,99709.97
2023-03-22T09:54:03.627Z,99719.81
2023-03-22T09:55:11.270Z,99710.47
2023-03-22T09:56:17.616Z,99709.25
2023-03-22T09:57:26.161Z,99701.31
2023-03-22T09:58:30.742Z,99702.78
2023-03-22T09:59:41.835Z,99699.03
2023-03-22T10:00:46.175Z,99709.97
2023-03-22T10:01:54.637Z,99688.16
2023-03-22T10:03:01.914Z,99705.78
2023-03-22T10:04:18.575Z,99722.19
2023-03-22T10:05:27.676Z,99685.00
2023-03-22T10:06:31.702Z,99713.84
2023-03-22T10:07:39.106Z,99682.25
2023-03-22T10:08:51.852Z,99686.69
2023-03-22T10:10:02.049Z,99678.28
2023-03-22T10:11:09.049Z,99685.25
2023-03-22T10:12:18.181Z,99680.56
2023-03-22T10:13:26.390Z,99694.25
2023-03-22T10:14:31.161Z,99698.44
2023-03-22T10:15:38.516Z,99697.25
2023-03-22T10:16:40.587Z,99707.81
2023-03-22T10:17:45.458Z,99714.41
2023-03-22T10:18:50.925Z,99679.50
2023-03-22T10:19:55.285Z,99693.78
2023-03-22T10:21:02.217Z,99697.50
2023-03-22T10:22:05.212Z,99692.66
2023-03-22T10:23:12.276Z,99688.25
2023-03-22T10:24:17.514Z,99694.25
2023-03-22T10:25:23.488Z,99706.13
2023-03-22T10:26:30.383Z,99698.44
2023-03-22T10:27:32.220Z,99681.56
2023-03-22T10:28:38.873Z,99700.88
2023-03-22T10:29:43.747Z,99695.09
2023-03-22T10:30:51.072Z,99691.72
2023-03-22T10:31:54.902Z,99693.41
2023-03-22T10:33:01.664Z,99686.81
2023-03-22T10:34:06.524Z,99692.22
2023-03-22T10:35:15.055Z,99692.22
2023-03-22T10:36:19.315Z,99696.00
2023-03-22T10:37:24.749Z,99706.09
2023-03-22T10:38:28.874Z,99688.09
2023-03-22T10:39:32.835Z,99686.63
2023-03-22T10:40:36.916Z,99706.91
2023-03-22T10:41:40.408Z,99696.53
2023-03-22T10:42:43.164Z,99709.41
2023-03-22T10:43:46.983Z,99685.94
2023-03-22T10:44:50.611Z,99701.63
2023-03-22T10:45:55.711Z,99687.53
2023-03-22T10:47:02.441Z,99685.81
2023-03-22T10:48:07.426Z,99673.84
2023-03-22T10:49:13.115Z,99677.97
2023-03-22T10:50:18.926Z,99682.56
2023-03-22T10:51:26.579Z,99686.09
2023-03-22T10:52:36.956Z,99683.91
2023-03-22T10:53:41.071Z,99683.00
2023-03-22T10:54:42.862Z,99687.31
2023-03-22T10:55:45.732Z,99682.63
2023-03-22T10:56:48.757Z,99713.91
2023-03-22T10:58:12.233Z,99696.06
2023-03-22T10:59:48.522Z,99687.09
2023-03-22T11:00:53.224Z,99679.53
2023-03-22T11:01:56.745Z,99696.25
2023-03-22T11:03:00.662Z,99685.50
2023-03-22T11:04:08.485Z,99675.84
2023-03-22T11:05:20.788Z,99686.59
2023-03-22T11:06:25.760Z,99684.34
2023-03-22T11:07:33.266Z,99676.44
2023-03-22T11:10:07.667Z,99669.31
2023-03-22T11:11:16.687Z,99670.16
2023-03-22T11:12:19.418Z,99674.78
2023-03-22T11:13:23.017Z,99677.78
2023-03-22T11:14:29.398Z,99667.88
2023-03-22T11:15:33.445Z,99661.13
2023-03-22T11:16:43.440Z,99672.56
2023-03-22T11:17:46.498Z,99683.72
2023-03-22T11:18:49.353Z,99679.66
2023-03-22T11:19:55.957Z,99674.09
2023-03-22T11:21:01.399Z,99665.34
2023-03-22T11:22:07.493Z,99669.56
2023-03-22T11:23:12.433Z,99676.88
2023-03-22T11:24:15.688Z,99690.19
2023-03-22T11:25:21.206Z,99662.88
2023-03-22T11:26:30.165Z,99669.50
2023-03-22T11:27:37.432Z,99664.50
2023-03-22T11:28:43.607Z,99681.81
2023-03-22T11:29:49.842Z,99662.09
2023-03-22T11:31:00.532Z,99661.19
2023-03-22T11:32:03.293Z,99663.72
2023-03-22T11:33:17.264Z,99644.09
2023-03-22T11:34:22.578Z,99659.34
2023-03-22T11:35:27.056Z,99654.72
2023-03-22T11:36:29.348Z,99656.47
2023-03-22T11:37:32.219Z,99644.69
2023-03-22T11:38:38.159Z,99643.38
2023-03-22T11:39:48.174Z,99650.97
2023-03-22T11:40:54.455Z,99661.59
2023-03-22T11:42:03.692Z,99659.81
2023-03-22T11:43:13.587Z,99645.78
2023-03-22T11:44:19.008Z,99646.78
2023-03-22T11:45:25.999Z,99628.56
2023-03-22T11:46:30.063Z,99634.22
2023-03-22T11:47:36.434Z,99635.72
2023-03-22T11:48:42.019Z,99638.19
2023-03-22T11:49:47.407Z,99644.84
2023-03-22T11:50:49.563Z,99638.00
2023-03-22T11:51:53.049Z,99621.41
2023-03-22T11:52:56.760Z,99635.72
2023-03-22T11:54:05.498Z,99629.09
2023-03-22T11:55:08.072Z,99622.19
2023-03-22T11:56:12.796Z,99620.56
2023-03-22T11:57:17.159Z,99620.06
2023-03-22T11:58:28.042Z,99617.94
2023-03-22T11:59:31.901Z,99630.66
2023-03-22T12:00:37.551Z,99619.06
2023-03-22T12:01:41.943Z,99617.47
2023-03-22T12:02:47.740Z,99631.63
2023-03-22T12:03:53.641Z,99628.41
2023-03-22T12:05:01.902Z,99619.00
2023-03-22T12:06:05.271Z,99625.19
2023-03-22T12:07:15.424Z,99617.72
2023-03-22T12:08:22.091Z,99613.03
2023-03-22T12:09:29.634Z,99611.94
2023-03-22T12:10:33.819Z,99607.75
2023-03-22T12:11:38.095Z,99611.84
2023-03-22T12:12:44.994Z,99613.84
2023-03-22T12:13:50.208Z,99615.16
2023-03-22T12:14:55.848Z,99603.19
2023-03-22T12:15:59.462Z,99612.97
2023-03-22T12:17:06.926Z,99611.38
2023-03-22T12:18:13.522Z,99631.09
2023-03-22T12:19:23.575Z,99617.38
2023-03-22T12:20:35.274Z,99620.44
2023-03-22T12:21:37.061Z,99610.19
2023-03-22T12:22:43.480Z,99595.53
2023-03-22T12:23:46.372Z,99619.09
2023-03-22T12:24:48.056Z,99641.75
2023-03-22T12:25:52.895Z,99609.59
2023-03-22T12:26:57.321Z,99604.34
2023-03-22T12:28:03.573Z,99607.94
2023-03-22T12:29:08.208Z,99588.31
2023-03-22T12:30:14.742Z,99587.75
2023-03-22T12:31:21.642Z,99570.84
2023-03-22T12:32:26.251Z,99592.53
2023-03-22T12:33:30.963Z,99589.28
2023-03-22T12:34:37.297Z,99584.25
2023-03-22T12:35:44.438Z,99599.84
2023-03-22T12:36:48.464Z,99591.22
2023-03-22T12:37:53.554Z,99607.59
2023-03-22T12:38:57.955Z,99589.28
2023-03-22T12:40:05.778Z,99586.00